52WI weather

John'S Field
Athens, Wisconsin, United States

Public forecast

Using degrees Fahrenheit for public forecast. Weather courtesy of forecast.io.

Closest aviation weather report (METAR) to John'S Field

Closest report is Taylor County Airport, 11.0 nm (20.4 km) WSW. Retrieved 2020/02/18 21:35 UTC (0 seconds ago):

KMDZ 182135Z AUTO 29016G23KT 5SM HZ SCT030 BKN035 M08/M13 A3013 RMK AO2 T10761132

Closest aviation forecast (TAF) to John'S Field

Forecast is more than 6 hours old.

Closest forecast is Wausau Downtown Airport, 23.0 nm (42.6 km) SE. Retrieved 2020/02/18 12:27 UTC (9 hours ago):

TAF KAUW 181125Z 1812/1912 32013G20KT P6SM -SHSN BKN015 BKN025 TEMPO 1813/1815 SCT025 FM181500 30014G23KT P6SM BKN020 BKN035 FM182000 29014G23KT P6SM BKN035 FM190000 30010G16KT P6SM SCT030 FM190200 30007KT P6SM SKC